Time;durP1;ratioP1;P1;durP2;ratioP2;P2;SDS_P1;SDS_P2;PMS_P1;PMS_P2;Temp;Humidity;BMP_temperature;BMP_pressure;BME280_temperature;BME280_humidity;BME280_pressure;Samples;Min_cycle;Max_cycle;Signal;HPM_P1;HPM_P2
2023/01/06 00:01:24;;;;;;;58.85;54.25;;;;;;;7.83;100.00;101043.88;5035945;28;20049;-86
2023/01/06 00:03:58;;;;;;;59.60;54.95;;;;;;;7.80;100.00;101053.81;5033930;28;20520;-86
2023/01/06 00:06:27;;;;;;;59.10;54.80;;;;;;;7.87;100.00;101045.19;5034169;28;20051;-86
2023/01/06 00:08:54;;;;;;;57.95;53.63;;;;;;;7.83;100.00;101038.59;5033697;28;20140;-86
2023/01/06 00:11:21;;;;;;;60.03;55.72;;;;;;;7.90;100.00;101036.91;5034566;28;20513;-86
2023/01/06 00:13:48;;;;;;;60.75;56.05;;;;;;;7.85;100.00;101055.13;5034843;28;20119;-86
2023/01/06 00:16:16;;;;;;;61.45;57.05;;;;;;;7.86;100.00;101048.81;5033575;28;20045;-86
2023/01/06 00:18:43;;;;;;;62.00;57.45;;;;;;;7.86;100.00;101054.91;5034412;28;20607;-87
2023/01/06 00:21:13;;;;;;;58.55;54.13;;;;;;;7.84;100.00;101064.03;5034235;28;20469;-87
2023/01/06 00:23:40;;;;;;;58.85;54.65;;;;;;;7.82;100.00;101074.81;5034362;28;20564;-86
2023/01/06 00:26:09;;;;;;;60.65;56.55;;;;;;;7.92;100.00;101069.25;5034187;28;20107;-86
2023/01/06 00:28:36;;;;;;;60.60;56.10;;;;;;;7.78;100.00;101076.16;5032221;28;20053;-86
2023/01/06 00:31:07;;;;;;;62.92;58.60;;;;;;;7.83;100.00;101079.09;5034105;28;20050;-87
2023/01/06 00:33:34;;;;;;;60.75;56.45;;;;;;;7.82;100.00;101081.91;5033435;28;20128;-85
2023/01/06 00:36:01;;;;;;;60.92;56.85;;;;;;;7.57;100.00;101093.50;5034342;28;20072;-87
2023/01/06 00:38:29;;;;;;;60.38;55.95;;;;;;;7.78;100.00;101082.28;5034232;28;20061;-86
2023/01/06 00:40:56;;;;;;;60.65;56.13;;;;;;;7.73;100.00;101094.38;5033896;28;20433;-85
2023/01/06 00:43:23;;;;;;;56.08;51.60;;;;;;;7.68;100.00;101097.53;5033728;28;20045;-86
2023/01/06 00:45:50;;;;;;;54.75;50.95;;;;;;;7.61;100.00;101101.91;5033830;28;20454;-87
2023/01/06 00:48:17;;;;;;;53.60;49.78;;;;;;;7.68;100.00;101099.38;5032973;28;20042;-86
2023/01/06 00:50:44;;;;;;;54.13;50.08;;;;;;;7.44;100.00;101101.19;5034175;28;20080;-86
2023/01/06 00:53:10;;;;;;;51.92;48.00;;;;;;;7.39;100.00;101108.03;5033287;28;20045;-85
2023/01/06 00:55:39;;;;;;;53.42;49.58;;;;;;;7.40;100.00;101109.66;5032898;28;20057;-86
2023/01/06 00:58:05;;;;;;;50.38;46.58;;;;;;;7.56;100.00;101113.03;5033143;28;20050;-87
2023/01/06 01:00:32;;;;;;;52.03;48.08;;;;;;;7.45;100.00;101108.16;5034588;28;20048;-86
2023/01/06 01:02:59;;;;;;;54.63;50.72;;;;;;;7.24;100.00;101111.41;5029792;28;20140;-85
2023/01/06 01:05:26;;;;;;;54.08;50.08;;;;;;;7.24;100.00;101107.94;5030460;28;20482;-87
2023/01/06 01:07:52;;;;;;;52.45;48.65;;;;;;;7.31;100.00;101107.06;5032351;28;20556;-86
2023/01/06 01:10:19;;;;;;;53.05;49.28;;;;;;;7.29;100.00;101111.72;5032276;28;20048;-87
2023/01/06 01:12:48;;;;;;;56.03;51.53;;;;;;;7.28;100.00;101114.53;5027313;28;20045;-87
2023/01/06 01:15:15;;;;;;;52.20;48.30;;;;;;;7.49;100.00;101117.34;5033418;28;20045;-86
2023/01/06 01:17:41;;;;;;;52.47;48.75;;;;;;;7.39;100.00;101123.88;5032909;28;20477;-86
2023/01/06 01:20:09;;;;;;;52.55;48.65;;;;;;;7.26;100.00;101119.16;5034296;28;20454;-86
2023/01/06 01:22:36;;;;;;;51.67;47.85;;;;;;;7.31;100.00;101124.75;5033874;28;20050;-86
2023/01/06 01:25:03;;;;;;;51.03;47.20;;;;;;;7.38;100.00;101130.16;5033934;28;20056;-86
2023/01/06 01:27:30;;;;;;;55.60;51.67;;;;;;;7.41;100.00;101130.63;5034698;28;20049;-86
2023/01/06 01:29:58;;;;;;;53.08;49.45;;;;;;;7.36;100.00;101140.09;5034049;28;20053;-87
2023/01/06 01:32:24;;;;;;;53.33;49.50;;;;;;;7.42;100.00;101136.75;5033980;28;20046;-86
2023/01/06 01:34:51;;;;;;;51.55;47.40;;;;;;;7.49;100.00;101142.97;5033790;28;20421;-86
2023/01/06 01:37:18;;;;;;;52.72;49.03;;;;;;;7.44;100.00;101135.56;5033589;28;20460;-86
2023/01/06 01:39:45;;;;;;;51.75;47.65;;;;;;;7.28;100.00;101138.31;5034180;28;20041;-86
2023/01/06 01:42:17;;;;;;;51.35;47.88;;;;;;;7.48;100.00;101128.13;5034748;28;20084;-86
2023/01/06 01:44:56;;;;;;;54.17;50.40;;;;;;;7.32;100.00;101127.22;5033989;28;20072;-86
2023/01/06 01:47:40;;;;;;;53.92;49.97;;;;;;;7.25;100.00;101125.44;5029469;28;20475;-86
2023/01/06 01:50:13;;;;;;;51.60;47.67;;;;;;;7.30;100.00;101129.22;5030228;28;20053;-85
2023/01/06 01:52:40;;;;;;;;;;;;;;;7.26;100.00;101130.56;5033933;28;20053;-86
2023/01/06 01:55:09;;;;;;;59.38;55.13;;;;;;;7.20;100.00;101133.91;5033191;28;19920;-86
2023/01/06 01:57:40;;;;;;;53.75;49.47;;;;;;;7.23;100.00;101138.00;5034138;28;20049;-86
2023/01/06 02:00:09;;;;;;;56.25;52.05;;;;;;;7.14;100.00;101136.38;5033879;28;20053;-87
2023/01/06 02:02:37;;;;;;;55.20;51.20;;;;;;;7.24;100.00;101142.31;5033498;28;20125;-86
2023/01/06 02:05:06;;;;;;;57.33;53.28;;;;;;;7.50;100.00;101145.47;5033915;28;20523;-86
2023/01/06 02:07:33;;;;;;;58.30;53.83;;;;;;;7.25;100.00;101142.13;5032688;28;20102;-86
2023/01/06 02:10:09;;;;;;;57.88;53.40;;;;;;;7.20;100.00;101144.47;5033417;28;20042;-86
2023/01/06 02:12:37;;;;;;;58.22;53.75;;;;;;;7.43;100.00;101143.66;5034507;28;20111;-86
2023/01/06 02:15:13;;;;;;;55.80;51.60;;;;;;;7.32;100.00;101145.72;5032884;28;20060;-86
2023/01/06 02:18:06;;;;;;;55.65;51.78;;;;;;;7.28;100.00;101151.50;5033299;28;20100;-86
2023/01/06 02:20:46;;;;;;;60.10;56.08;;;;;;;7.31;100.00;101148.53;5030979;28;20057;-86
2023/01/06 02:23:42;;;;;;;62.90;58.30;;;;;;;7.24;100.00;101152.88;5030441;28;20045;-86
2023/01/06 02:26:46;;;;;;;57.40;53.22;;;;;;;7.38;100.00;101157.41;5032192;28;20103;-86
2023/01/06 02:29:45;;;;;;;56.72;52.60;;;;;;;7.09;100.00;101164.16;5030456;28;20103;-87
2023/01/06 02:32:27;;;;;;;58.20;53.80;;;;;;;7.25;100.00;101155.31;5034656;28;20045;-86
2023/01/06 02:35:09;;;;;;;61.80;56.70;;;;;;;7.18;100.00;101164.94;5038053;28;20119;-86
2023/01/06 02:37:48;;;;;;;54.73;50.97;;;;;;;7.44;100.00;101169.09;5037561;28;20053;-86
2023/01/06 02:40:26;;;;;;;53.85;49.55;;;;;;;7.04;100.00;101170.94;5037031;28;20049;-86
2023/01/06 02:43:04;;;;;;;53.85;49.65;;;;;;;7.18;100.00;101180.81;5037113;28;20114;-86
2023/01/06 02:45:37;;;;;;;59.28;54.83;;;;;;;7.06;100.00;101172.44;5037223;28;20052;-84
2023/01/06 02:48:12;;;;;;;57.10;52.83;;;;;;;6.96;100.00;101181.53;5037622;28;20045;-86
2023/01/06 02:50:43;;;;;;;55.67;51.78;;;;;;;6.90;100.00;101180.44;5037324;28;20053;-86
2023/01/06 02:53:20;;;;;;;60.90;56.72;;;;;;;7.00;100.00;101181.03;5037479;28;20131;-85
2023/01/06 02:55:49;;;;;;;60.10;55.78;;;;;;;6.90;100.00;101188.34;5036739;28;20106;-86
2023/01/06 02:58:28;;;;;;;58.58;54.08;;;;;;;6.77;100.00;101186.22;5036915;28;20045;-86
2023/01/06 03:03:27;;;;;;;64.43;60.13;;;;;;;6.94;100.00;101200.22;5030602;28;20041;-78
2023/01/06 03:05:59;;;;;;;62.38;57.85;;;;;;;6.85;100.00;101193.31;5033483;28;20049;-79
2023/01/06 03:08:28;;;;;;;61.55;57.20;;;;;;;7.08;100.00;101196.00;5034210;28;20041;-82
2023/01/06 03:10:57;;;;;;;62.28;57.75;;;;;;;6.79;100.00;101201.91;5034354;28;20046;-78
2023/01/06 03:13:33;;;;;;;55.28;50.78;;;;;;;6.96;100.00;101203.50;5032882;28;20464;-80
2023/01/06 03:16:00;;;;;;;56.13;52.05;;;;;;;6.98;100.00;101198.03;5033167;28;20563;-79
2023/01/06 03:18:28;;;;;;;53.42;49.47;;;;;;;7.00;100.00;101188.13;5034607;28;20131;-79
2023/01/06 03:20:59;;;;;;;51.92;48.33;;;;;;;6.88;100.00;101195.59;5032047;28;20660;-79
2023/01/06 03:23:26;;;;;;;51.30;47.58;;;;;;;7.03;100.00;101195.72;5032411;28;20123;-79
2023/01/06 03:25:53;;;;;;;62.42;58.03;;;;;;;6.72;100.00;101190.34;5032768;28;20449;-79
2023/01/06 03:28:20;;;;;;;59.75;55.90;;;;;;;6.98;100.00;101193.56;5033381;28;20041;-78
2023/01/06 03:30:52;;;;;;;56.63;52.63;;;;;;;6.82;100.00;101191.81;5033252;28;20068;-78
2023/01/06 03:33:25;;;;;;;55.40;51.65;;;;;;;6.98;100.00;101190.13;5033219;28;20037;-79
2023/01/06 03:36:05;;;;;;;57.22;52.72;;;;;;;7.04;100.00;101202.63;5033028;28;20118;-79
2023/01/06 03:38:46;;;;;;;58.78;54.88;;;;;;;6.69;100.00;101203.88;5031799;28;20037;-79
2023/01/06 03:43:10;;;;;;;53.08;49.47;;;;;;;6.70;100.00;101216.13;5034148;28;20103;-78
2023/01/06 03:44:18;;;;;;;55.35;51.42;;;;;;;6.70;100.00;101206.38;5033022;28;20045;-79
2023/01/06 03:46:53;;;;;;;55.72;51.70;;;;;;;6.89;100.00;101219.19;5033499;28;20128;-79
2023/01/06 03:49:24;;;;;;;55.17;51.45;;;;;;;6.97;100.00;101223.63;5033408;28;20772;-79
2023/01/06 03:51:56;;;;;;;54.80;50.80;;;;;;;6.82;100.00;101223.50;5032587;28;20050;-79
2023/01/06 03:54:35;;;;;;;53.60;50.10;;;;;;;6.99;100.00;101220.81;5032761;28;20107;-79
2023/01/06 03:57:07;;;;;;;52.22;48.58;;;;;;;7.15;100.00;101233.16;5033257;28;20049;-78
2023/01/06 03:59:41;;;;;;;51.40;48.03;;;;;;;7.12;100.00;101223.75;5032737;28;20046;-79
2023/01/06 04:02:08;;;;;;;54.38;50.67;;;;;;;7.18;100.00;101230.19;5033245;28;20046;-78
2023/01/06 04:04:37;;;;;;;54.00;50.17;;;;;;;6.82;100.00;101235.88;5033463;28;20049;-78
2023/01/06 04:07:05;;;;;;;52.78;49.13;;;;;;;6.94;100.00;101239.81;5032480;28;20041;-78
2023/01/06 04:09:32;;;;;;;52.72;49.15;;;;;;;7.11;100.00;101238.78;5032792;28;20465;-80
2023/01/06 04:14:42;;;;;;;51.08;47.47;;;;;;;6.48;100.00;101236.13;5033035;28;20426;-81
2023/01/06 04:17:09;;;;;;;50.33;46.65;;;;;;;6.89;100.00;101232.38;5032884;28;20498;-78
2023/01/06 04:19:36;;;;;;;56.10;52.65;;;;;;;6.88;100.00;101232.56;5032955;28;20046;-81
2023/01/06 04:22:02;;;;;;;48.90;45.17;;;;;;;6.79;100.00;101237.03;5031827;28;20049;-80
2023/01/06 04:24:31;;;;;;;52.10;47.63;;;;;;;6.85;100.00;101246.94;5031530;28;20100;-80
2023/01/06 04:26:57;;;;;;;55.00;50.40;;;;;;;6.88;100.00;101235.22;5032076;28;20136;-79
2023/01/06 04:29:24;;;;;;;58.22;53.75;;;;;;;6.94;100.00;101231.06;5032766;28;20045;-79
2023/01/06 04:31:51;;;;;;;51.00;47.20;;;;;;;6.93;100.00;101216.19;5032617;28;20041;-79
2023/01/06 04:34:17;;;;;;;49.35;45.40;;;;;;;7.02;100.00;101236.31;5032580;28;20502;-79
2023/01/06 04:36:44;;;;;;;59.28;54.90;;;;;;;6.77;100.00;101231.09;5032433;28;20053;-79
2023/01/06 04:39:11;;;;;;;54.78;50.38;;;;;;;6.82;100.00;101241.16;5031455;28;20045;-79
2023/01/06 04:41:39;;;;;;;58.97;54.72;;;;;;;7.05;100.00;101250.03;5032769;28;20053;-80
2023/01/06 04:44:06;;;;;;;47.33;43.78;;;;;;;6.86;100.00;101260.94;5031476;28;20049;-79
2023/01/06 04:46:32;;;;;;;48.97;44.85;;;;;;;6.70;100.00;101266.28;5032354;28;20042;-79
2023/01/06 04:48:59;;;;;;;51.05;47.35;;;;;;;6.63;100.00;101269.59;5031121;28;20080;-78
2023/01/06 04:51:26;;;;;;;54.25;49.70;;;;;;;6.56;100.00;101273.84;5032125;28;20052;-79
2023/01/06 04:53:52;;;;;;;55.05;50.88;;;;;;;6.71;100.00;101279.28;5031721;28;20054;-79
2023/01/06 04:56:19;;;;;;;51.10;47.50;;;;;;;6.42;100.00;101283.28;5032053;28;20118;-78
2023/01/06 04:58:47;;;;;;;48.60;44.90;;;;;;;6.63;100.00;101285.41;5031669;28;20042;-79
2023/01/06 05:01:14;;;;;;;58.40;54.30;;;;;;;6.38;100.00;101286.41;5030335;28;20064;-78
2023/01/06 05:03:41;;;;;;;57.80;53.35;;;;;;;6.49;100.00;101280.78;5030547;28;20053;-78
2023/01/06 05:06:11;;;;;;;46.03;41.55;;;;;;;6.81;100.00;101281.78;5032070;28;20049;-79
2023/01/06 05:08:38;;;;;;;47.17;43.50;;;;;;;6.62;100.00;101293.50;5029791;28;20079;-79
2023/01/06 05:11:07;;;;;;;48.92;45.20;;;;;;;6.53;100.00;101294.47;5031467;28;20111;-79
2023/01/06 05:13:34;;;;;;;52.05;48.08;;;;;;;6.27;100.00;101292.00;5030878;28;20041;-78
2023/01/06 05:16:06;;;;;;;47.08;43.00;;;;;;;6.43;100.00;101295.47;5031875;28;20041;-79
2023/01/06 05:18:33;;;;;;;48.40;44.80;;;;;;;6.33;100.00;101304.56;5028114;28;20095;-79
2023/01/06 05:20:59;;;;;;;48.38;44.28;;;;;;;6.36;100.00;101306.84;5031789;28;20053;-79
2023/01/06 05:23:26;;;;;;;49.70;46.40;;;;;;;6.43;100.00;101295.47;5029680;28;20045;-79
2023/01/06 05:25:53;;;;;;;52.95;49.55;;;;;;;6.36;100.00;101305.03;5030389;28;21002;-79
2023/01/06 05:28:20;;;;;;;49.75;46.08;;;;;;;6.19;100.00;101301.53;4986670;28;20041;-79
2023/01/06 05:30:47;;;;;;;52.92;49.22;;;;;;;6.61;100.00;101311.16;5029174;28;20053;-80
2023/01/06 05:33:16;;;;;;;46.90;43.67;;;;;;;6.95;100.00;101318.03;5031330;28;20080;-79
2023/01/06 05:35:42;;;;;;;48.45;44.95;;;;;;;6.49;100.00;101311.66;5010709;28;20049;-79
2023/01/06 05:38:09;;;;;;;51.45;47.60;;;;;;;6.91;100.00;101306.19;5037741;28;20049;-79
2023/01/06 05:40:36;;;;;;;47.65;44.15;;;;;;;6.58;100.00;101308.03;5030909;28;20111;-79
2023/01/06 05:43:02;;;;;;;49.00;45.40;;;;;;;6.78;100.00;101305.88;5029772;28;20178;-79
2023/01/06 05:45:29;;;;;;;47.35;44.00;;;;;;;6.74;100.00;101293.97;5031308;28;20107;-79
2023/01/06 05:47:56;;;;;;;46.85;43.60;;;;;;;6.78;100.00;101297.97;5029478;28;20049;-80
2023/01/06 05:50:24;;;;;;;48.03;44.58;;;;;;;6.87;100.00;101305.69;5025976;28;20049;-79
2023/01/06 05:52:51;;;;;;;47.33;44.13;;;;;;;7.03;100.00;101299.56;5026875;28;20107;-79
2023/01/06 05:55:18;;;;;;;48.35;44.85;;;;;;;6.89;100.00;101308.16;5031795;28;20053;-79
2023/01/06 05:57:45;;;;;;;46.15;42.72;;;;;;;7.18;100.00;101322.66;5032769;28;20045;-79
2023/01/06 06:00:12;;;;;;;48.70;45.30;;;;;;;6.98;100.00;101325.63;5031183;28;20494;-79
2023/01/06 06:02:39;;;;;;;47.47;43.75;;;;;;;6.87;100.00;101331.28;5024283;28;20053;-79
2023/01/06 06:05:06;;;;;;;47.17;43.72;;;;;;;6.97;100.00;101321.34;5031575;28;20041;-79
2023/01/06 06:07:34;;;;;;;46.13;42.95;;;;;;;6.93;100.00;101324.47;5025730;28;20140;-79
2023/01/06 06:10:01;;;;;;;47.70;44.28;;;;;;;6.65;100.00;101327.47;5028035;28;20095;-78
2023/01/06 06:12:28;;;;;;;48.80;45.00;;;;;;;6.86;100.00;101326.97;5031322;28;20049;-79
2023/01/06 06:14:55;;;;;;;50.13;46.60;;;;;;;6.82;100.00;101323.84;5031248;28;20045;-79
2023/01/06 06:17:21;;;;;;;47.00;43.67;;;;;;;7.13;100.00;101325.78;5025869;28;20046;-79
2023/01/06 06:19:48;;;;;;;46.83;43.72;;;;;;;6.93;100.00;101313.91;5027919;28;20518;-79
2023/01/06 06:22:15;;;;;;;47.60;44.20;;;;;;;7.13;100.00;101319.66;5030385;28;20503;-79
2023/01/06 06:24:43;;;;;;;50.05;46.55;;;;;;;7.33;100.00;101332.34;5031602;28;20472;-78
2023/01/06 06:27:10;;;;;;;49.40;46.10;;;;;;;7.24;100.00;101327.25;5033125;28;20119;-79
2023/01/06 06:29:37;;;;;;;52.80;49.03;;;;;;;7.27;100.00;101340.13;5029131;28;20441;-83
2023/01/06 06:32:04;;;;;;;50.25;47.05;;;;;;;7.50;100.00;101354.28;5028775;28;20518;-81
2023/01/06 06:34:30;;;;;;;48.38;45.08;;;;;;;7.82;100.00;101352.50;5030851;28;20061;-81
2023/01/06 06:36:57;;;;;;;48.88;45.50;;;;;;;7.76;100.00;101364.56;5031622;28;20046;-81
2023/01/06 06:39:24;;;;;;;48.15;45.15;;;;;;;7.66;100.00;101360.50;5025705;28;20498;-80
2023/01/06 06:41:52;;;;;;;50.13;45.97;;;;;;;7.87;100.00;101357.28;5031554;28;20061;-80
2023/01/06 06:44:19;;;;;;;49.95;46.45;;;;;;;8.13;100.00;101355.13;5031531;28;20509;-80
2023/01/06 06:46:45;;;;;;;47.60;44.25;;;;;;;7.97;100.00;101358.69;5025582;28;20476;-80
2023/01/06 06:49:12;;;;;;;49.45;46.00;;;;;;;7.75;100.00;101362.94;5027672;28;20041;-80
2023/01/06 06:51:39;;;;;;;49.40;45.92;;;;;;;8.23;100.00;101368.16;5025975;28;20465;-80
2023/01/06 06:54:06;;;;;;;49.42;46.33;;;;;;;8.36;100.00;101381.63;5025059;28;20045;-80
2023/01/06 06:56:32;;;;;;;50.05;46.95;;;;;;;8.52;100.00;101379.91;5028809;28;20046;-80
2023/01/06 06:59:00;;;;;;;49.97;46.72;;;;;;;8.46;100.00;101386.72;5027521;28;20046;-80
2023/01/06 07:01:30;;;;;;;49.03;45.58;;;;;;;8.73;100.00;101395.97;5025399;28;20555;-81
2023/01/06 07:03:57;;;;;;;49.05;45.83;;;;;;;8.74;100.00;101391.50;5015328;28;20530;-79
2023/01/06 07:06:26;;;;;;;47.33;44.08;;;;;;;8.38;100.00;101392.03;5023662;28;20045;-78
2023/01/06 07:08:53;;;;;;;48.67;45.45;;;;;;;8.73;100.00;101395.16;5026225;28;20041;-79
2023/01/06 07:11:21;;;;;;;48.17;44.92;;;;;;;8.75;100.00;101395.81;5024991;28;20132;-78
2023/01/06 07:13:48;;;;;;;50.78;46.83;;;;;;;8.60;100.00;101396.56;5021194;28;20049;-80
2023/01/06 07:16:16;;;;;;;50.95;47.67;;;;;;;8.44;100.00;101413.41;5028609;28;20575;-81
2023/01/06 07:18:43;;;;;;;49.85;46.55;;;;;;;8.70;100.00;101401.63;5030482;28;20083;-80
2023/01/06 07:21:10;;;;;;;52.95;49.45;;;;;;;8.83;100.00;101407.16;5028571;28;20054;-80
2023/01/06 07:23:37;;;;;;;49.78;46.70;;;;;;;8.99;100.00;101408.03;5029255;28;20049;-81
2023/01/06 07:26:04;;;;;;;47.95;44.90;;;;;;;8.59;100.00;101409.97;5029858;28;20099;-80
2023/01/06 07:28:32;;;;;;;50.88;47.75;;;;;;;9.30;100.00;101407.91;5030153;28;20045;-81
2023/01/06 07:33:41;;;;;;;50.47;47.67;;;;;;;9.04;100.00;101409.13;5032812;28;20064;-81
2023/01/06 07:36:08;;;;;;;49.40;46.38;;;;;;;9.28;100.00;101410.75;5039684;28;20053;-80
2023/01/06 07:38:35;;;;;;;50.53;47.00;;;;;;;9.42;100.00;101403.00;5038118;28;20045;-79
2023/01/06 07:41:02;;;;;;;50.55;47.47;;;;;;;9.34;100.00;101398.59;5033759;28;20053;-79
2023/01/06 07:43:29;;;;;;;51.28;48.17;;;;;;;9.72;100.00;101412.63;5028802;28;20045;-79
2023/01/06 07:45:56;;;;;;;49.28;46.17;;;;;;;9.73;100.00;101410.78;5032818;28;20049;-78
2023/01/06 07:48:22;;;;;;;50.30;47.15;;;;;;;9.61;100.00;101418.38;5032289;28;20042;-79
2023/01/06 07:50:51;;;;;;;52.03;48.90;;;;;;;10.14;100.00;101415.59;5032210;28;20053;-79
2023/01/06 07:53:17;;;;;;;49.30;46.08;;;;;;;10.19;100.00;101411.38;5031510;28;20119;-79
2023/01/06 07:55:54;;;;;;;50.30;47.20;;;;;;;9.96;100.00;101421.31;5032057;28;20081;-79
2023/01/06 07:58:22;;;;;;;49.55;46.33;;;;;;;10.05;100.00;101421.00;5031895;28;20046;-79
2023/01/06 08:00:49;;;;;;;53.00;49.88;;;;;;;10.11;100.00;101419.44;5029467;28;20053;-80
2023/01/06 08:03:16;;;;;;;48.17;45.17;;;;;;;10.11;100.00;101419.44;5035604;28;20561;-82
2023/01/06 08:05:43;;;;;;;56.15;51.75;;;;;;;10.12;100.00;101429.06;5033530;28;20049;-80
2023/01/06 08:08:12;;;;;;;55.00;51.38;;;;;;;10.27;100.00;101421.91;5027426;28;20049;-80
2023/01/06 08:10:40;;;;;;;47.92;45.13;;;;;;;10.49;100.00;101436.03;5027270;28;20108;-81
2023/01/06 08:13:07;;;;;;;50.00;46.90;;;;;;;10.16;100.00;101416.22;5027355;28;20064;-82
2023/01/06 08:15:35;;;;;;;48.90;45.63;;;;;;;10.35;100.00;101420.16;5031467;28;20041;-81
2023/01/06 08:18:02;;;;;;;49.88;46.65;;;;;;;10.61;100.00;101431.06;5027095;28;20053;-78
2023/01/06 08:20:29;;;;;;;48.25;45.25;;;;;;;10.62;100.00;101434.53;5031094;28;20157;-80
2023/01/06 08:22:57;;;;;;;49.55;46.35;;;;;;;10.50;100.00;101437.72;5031172;28;20050;-80
2023/01/06 08:25:25;;;;;;;50.45;47.22;;;;;;;10.82;100.00;101456.00;5029684;28;20046;-80
2023/01/06 08:27:52;;;;;;;55.80;51.35;;;;;;;10.69;100.00;101462.84;5024773;28;20116;-81
2023/01/06 08:30:20;;;;;;;47.50;44.45;;;;;;;10.26;100.00;101477.84;5026894;28;20107;-81
2023/01/06 08:32:47;;;;;;;50.08;46.97;;;;;;;10.79;100.00;101481.13;5033236;28;20060;-81
2023/01/06 08:35:14;;;;;;;49.63;46.60;;;;;;;10.82;100.00;101480.75;5033727;28;20049;-80
2023/01/06 08:37:41;;;;;;;46.60;43.90;;;;;;;11.14;100.00;101475.94;5029703;28;20045;-80
2023/01/06 08:40:09;;;;;;;48.22;45.35;;;;;;;11.82;100.00;101493.03;5033035;28;20107;-80
2023/01/06 08:42:37;;;;;;;45.95;43.25;;;;;;;10.77;100.00;101497.25;5032885;28;20048;-80
2023/01/06 08:45:04;;;;;;;44.67;41.90;;;;;;;10.84;100.00;101501.81;5032738;28;20118;-82
2023/01/06 08:47:31;;;;;;;53.10;49.13;;;;;;;12.28;100.00;101504.97;5033361;28;20038;-81
2023/01/06 08:49:58;;;;;;;45.25;42.85;;;;;;;11.24;100.00;101509.16;5033026;28;20111;-81
2023/01/06 08:52:24;;;;;;;47.55;44.55;;;;;;;11.78;100.00;101514.91;5028007;28;20564;-81
2023/01/06 08:54:51;;;;;;;45.95;43.35;;;;;;;11.63;100.00;101513.16;5032379;28;20111;-81
2023/01/06 08:57:18;;;;;;;45.55;43.13;;;;;;;11.84;100.00;101516.81;5032732;28;20057;-81
2023/01/06 08:59:46;;;;;;;46.30;43.47;;;;;;;12.09;100.00;101518.00;5029768;28;20521;-80
2023/01/06 09:02:13;;;;;;;49.10;45.97;;;;;;;12.21;100.00;101517.44;5031224;28;20053;-81
2023/01/06 09:04:40;;;;;;;46.92;44.33;;;;;;;12.20;100.00;101526.47;5031453;28;20037;-80
2023/01/06 09:07:06;;;;;;;44.78;42.22;;;;;;;11.98;100.00;101523.91;5030892;28;20099;-80
2023/01/06 09:09:33;;;;;;;44.83;42.28;;;;;;;11.87;100.00;101527.09;5032335;28;20041;-81
2023/01/06 09:12:00;;;;;;;44.75;42.15;;;;;;;12.01;100.00;101536.81;5029930;28;20045;-80
2023/01/06 09:14:27;;;;;;;46.38;43.50;;;;;;;11.52;100.00;101534.97;5024692;28;20473;-81
2023/01/06 09:16:55;;;;;;;70.40;64.30;;;;;;;12.71;100.00;101531.38;5033050;28;20049;-81
2023/01/06 09:19:22;;;;;;;49.95;46.88;;;;;;;12.77;100.00;101538.59;5033769;28;20049;-82
2023/01/06 09:21:48;;;;;;;49.90;47.00;;;;;;;12.88;100.00;101519.34;5032834;28;20060;-80
2023/01/06 09:24:15;;;;;;;49.40;46.40;;;;;;;13.30;100.00;101520.06;5027444;28;20127;-78
2023/01/06 09:26:42;;;;;;;50.80;48.10;;;;;;;13.14;100.00;101525.78;5036622;28;20103;-80
2023/01/06 09:29:09;;;;;;;51.42;48.45;;;;;;;11.93;100.00;101518.31;5032230;28;20099;-81
2023/01/06 09:31:36;;;;;;;54.03;50.65;;;;;;;11.65;100.00;101523.63;5032191;28;20045;-81
2023/01/06 09:34:04;;;;;;;52.83;49.72;;;;;;;12.10;100.00;101526.81;5032039;28;20061;-80
2023/01/06 09:36:31;;;;;;;48.55;45.80;;;;;;;12.13;100.00;101529.06;5032304;28;20053;-81
2023/01/06 09:38:58;;;;;;;53.53;50.15;;;;;;;12.63;100.00;101520.91;5031511;28;20096;-80
2023/01/06 09:41:48;;;;;;;52.72;49.88;;;;;;;12.03;100.00;101517.97;5029231;28;20103;-78
2023/01/06 09:44:18;;;;;;;46.65;44.22;;;;;;;12.10;100.00;101505.50;5033021;28;20049;-81
2023/01/06 09:46:48;;;;;;;46.40;43.83;;;;;;;12.43;100.00;101518.97;5032300;28;20053;-78
2023/01/06 09:49:24;;;;;;;47.97;45.33;;;;;;;12.95;100.00;101530.88;5033267;28;20103;-80
2023/01/06 09:51:53;;;;;;;46.55;43.95;;;;;;;12.24;100.00;101520.53;5025980;28;20085;-78
2023/01/06 09:54:24;;;;;;;45.78;43.38;;;;;;;12.55;100.00;101513.91;5032790;28;20056;-78
2023/01/06 09:56:56;;;;;;;46.50;43.95;;;;;;;13.21;100.00;101505.25;5033204;28;20103;-79
2023/01/06 09:59:31;;;;;;;47.65;44.90;;;;;;;13.16;100.00;101503.22;5030867;28;20604;-79
2023/01/06 10:02:00;;;;;;;45.47;43.08;;;;;;;13.98;100.00;101498.44;5031481;28;20057;-78
2023/01/06 10:04:30;;;;;;;50.22;47.17;;;;;;;13.69;100.00;101495.19;5026177;28;20502;-78
2023/01/06 10:07:09;;;;;;;49.03;46.33;;;;;;;13.25;100.00;101491.34;5030173;28;20119;-80
2023/01/06 10:09:45;;;;;;;49.20;46.10;;;;;;;13.85;100.00;101495.78;5030195;28;20514;-79
2023/01/06 10:12:25;;;;;;;48.65;45.95;;;;;;;13.46;100.00;101484.97;5031011;28;20506;-79
2023/01/06 10:15:09;;;;;;;47.47;45.08;;;;;;;13.63;100.00;101485.34;5028754;28;20076;-79
2023/01/06 10:18:03;;;;;;;46.40;43.83;;;;;;;13.66;100.00;101484.94;5030611;28;20107;-79
2023/01/06 10:20:51;;;;;;;47.15;44.42;;;;;;;13.54;100.00;101480.44;5030081;28;20068;-81
2023/01/06 10:23:40;;;;;;;46.92;44.50;;;;;;;12.79;100.00;101489.38;5029091;28;20050;-82
2023/01/06 10:26:13;;;;;;;47.80;45.15;;;;;;;13.53;100.00;101484.97;5026414;28;20049;-81
2023/01/06 10:28:42;;;;;;;47.95;45.35;;;;;;;13.53;100.00;101490.31;5016016;28;20103;-78
2023/01/06 10:31:14;;;;;;;47.67;45.20;;;;;;;13.04;100.00;101496.81;5023623;28;20568;-80
2023/01/06 10:33:48;;;;;;;47.40;44.70;;;;;;;14.07;100.00;101497.19;5015703;28;20073;-79
2023/01/06 10:36:46;;;;;;;48.22;45.38;;;;;;;15.29;100.00;101495.31;5021847;28;20111;-80
2023/01/06 10:39:18;;;;;;;48.63;46.03;;;;;;;13.10;100.00;101489.84;5021856;28;20046;-81
2023/01/06 10:42:54;;;;;;;47.73;45.20;;;;;;;13.79;100.00;101486.75;5022940;28;20080;-80
2023/01/06 10:44:46;;;;;;;49.10;46.42;;;;;;;14.59;100.00;101497.22;5027491;28;20049;-79
2023/01/06 10:47:27;;;;;;;49.33;46.72;;;;;;;14.48;100.00;101493.31;5023195;28;20057;-82
2023/01/06 10:52:41;;;;;;;48.88;46.17;;;;;;;13.10;100.00;101477.34;5022044;28;20054;-81
2023/01/06 10:55:31;;;;;;;49.35;46.70;;;;;;;13.27;100.00;101472.44;5027872;28;20154;-81
2023/01/06 10:58:11;;;;;;;48.38;45.75;;;;;;;13.71;100.00;101460.31;5024337;28;20111;-82
2023/01/06 11:01:01;;;;;;;47.97;45.58;;;;;;;13.15;100.00;101458.88;5030001;28;20058;-81
2023/01/06 11:03:29;;;;;;;51.03;48.45;;;;;;;13.79;100.00;101461.91;5038472;28;20049;-80
2023/01/06 11:06:11;;;;;;;51.28;48.67;;;;;;;13.09;100.00;101462.34;5029460;28;20060;-80
2023/01/06 11:08:41;;;;;;;49.35;46.85;;;;;;;13.88;100.00;101469.50;5024417;28;20116;-81
2023/01/06 11:11:14;;;;;;;50.83;48.20;;;;;;;14.87;100.00;101464.75;5024817;28;20049;-81
2023/01/06 11:13:46;;;;;;;51.33;48.72;;;;;;;15.48;100.00;101468.59;5034800;28;20053;-79
2023/01/06 11:16:31;;;;;;;51.70;48.90;;;;;;;14.87;100.00;101470.13;5033033;28;20048;-80
2023/01/06 11:19:05;;;;;;;51.83;49.13;;;;;;;15.42;100.00;101472.16;5031868;28;20049;-80
2023/01/06 11:21:43;;;;;;;55.20;52.30;;;;;;;15.28;100.00;101461.56;5029224;28;20045;-80
2023/01/06 11:24:23;;;;;;;54.25;51.35;;;;;;;14.60;100.00;101467.59;5034343;28;20436;-80
2023/01/06 11:26:54;;;;;;;51.80;49.10;;;;;;;14.78;100.00;101466.06;5035455;28;20056;-80
2023/01/06 11:29:40;;;;;;;54.28;51.58;;;;;;;14.53;100.00;101471.34;5034221;28;20123;-80
2023/01/06 11:32:20;;;;;;;52.10;49.25;;;;;;;14.40;100.00;101472.19;5034510;28;20111;-80